Mount Pleasant, MI

12:30 PM EDT on August 20, 2017 (GMT -0400)
Mount Pleasant Municipal

Weather History for KMOP - January, 2014

Change the Weather History Date:

Sunday, January 5, 2014

  Actual Average (KAMN) Record (KAMN)
Temperature  
Mean Temperature 22 °F -  
Max Temperature 30 °F 29 °F 53 °F (1998)
Min Temperature 14 °F 12 °F -15 °F (1981)
Degree Days  
Heating Degree Days 43    
Moisture  
Dew Point 19 °F    
Average Humidity 86    
Maximum Humidity 94    
Minimum Humidity 76    
Precipitation  
Precipitation 0.01 in - - ()
Sea Level Pressure  
Sea Level Pressure 29.92 in    
Wind  
Wind Speed 6 mph (North)    
Max Wind Speed 13 mph    
Max Gust Speed 20 mph    
Visibility 4 miles    
Events Snow    
Averages and records for this station are not official NWS values.
T = Trace of Precipitation, MM = Missing Value Source: NWS Daily Summary

Daily Weather History Graph

Daily Weather History Graph

Search for Another Location

Airport or City:

Trip Planner

Search our weather history database for the weather conditions in past years. The results will help you decide how hot, cold, wet, or windy it might be!

Date:

Astronomy

Jan. 05, 2014 Rise Set
Actual Time 8:12 AM EST 5:16 PM EST
Civil Twilight 7:39 AM EST 5:49 PM EST
Nautical Twilight 7:03 AM EST 6:25 PM EST
Astronomical Twilight 6:29 AM EST 6:59 PM EST
Moon 10:43 AM EST (1/5) 10:54 PM EST (1/5)
Length of Visible Light 10h 09m
Length of Day
9h 04m
Waxing Crescent, 24% of the Moon is Illuminated
Jan 5
Waxing Crescent
Jan 7
First Quarter
Jan 15
Full
Jan 24
Last Quarter
Jan 30
New

Hourly Weather History & Observations

Time (EST) Temp. Windchill Dew Point Humidity Pressure Visibility Wind Dir Wind Speed Gust Speed Precip Events Conditions
12:15 AM 29.1 °F 25.4 °F 27.5 °F 94% 29.97 in 2.0 mi SSW 3.5 mph - N/A   Overcast
12:34 AM 29.1 °F 25.4 °F 27.5 °F 94% 29.97 in 2.0 mi South 3.5 mph - N/A   Overcast
12:55 AM 29.3 °F - 27.9 °F 94% 29.98 in 2.0 mi Calm Calm - N/A   Overcast
1:15 AM 29.1 °F - 27.5 °F 94% 29.98 in 2.5 mi Calm Calm - N/A   Overcast
1:34 AM 29.3 °F - 27.9 °F 94% 29.98 in 2.0 mi Calm Calm - N/A   Overcast
1:55 AM 29.7 °F - 27.9 °F 93% 30.00 in 2.0 mi Calm Calm - N/A   Overcast
2:15 AM 28.8 °F 22.6 °F 27.1 °F 94% 30.00 in 4.0 mi North 5.8 mph - N/A   Overcast
2:34 AM 28.6 °F 22.4 °F 27.0 °F 94% 30.01 in 3.0 mi North 5.8 mph - N/A   Overcast
2:55 AM 28.4 °F 23.3 °F 26.6 °F 93% 30.01 in 7.0 mi NNE 4.6 mph - N/A   Overcast
3:15 AM 28.4 °F 23.3 °F 26.2 °F 92% 30.01 in 7.0 mi North 4.6 mph - N/A   Overcast
3:34 AM 28.4 °F 21.2 °F 26.1 °F 91% 30.01 in 7.0 mi North 6.9 mph - N/A   Overcast
3:55 AM 28.2 °F 21.0 °F 24.8 °F 87% 30.01 in 10.0 mi North 6.9 mph - N/A   Overcast
4:15 AM 28.0 °F 21.7 °F 23.9 °F 84% 30.00 in 10.0 mi North 5.8 mph - N/A   Overcast
4:35 AM 27.9 °F 21.5 °F 23.5 °F 84% 29.99 in 10.0 mi North 5.8 mph - N/A   Overcast
4:55 AM 27.9 °F 22.6 °F 23.5 °F 84% 30.00 in 10.0 mi North 4.6 mph - N/A   Overcast
5:15 AM 27.5 °F 22.2 °F 23.2 °F 84% 30.00 in 10.0 mi North 4.6 mph - N/A   Overcast
5:35 AM 27.1 °F 19.7 °F 22.8 °F 84% 30.01 in 10.0 mi North 6.9 mph - N/A   Overcast
5:55 AM 27.0 °F 20.5 °F 22.1 °F 82% 30.02 in 10.0 mi North 5.8 mph - N/A   Overcast
6:15 AM 26.4 °F 17.3 °F 20.3 °F 78% 30.02 in 7.0 mi North 9.2 mph - N/A   Overcast
6:35 AM 25.7 °F 20.1 °F 21.0 °F 82% 30.02 in 5.0 mi North 4.6 mph - N/A   Haze
6:55 AM 25.3 °F 17.6 °F 21.2 °F 84% 30.02 in 5.0 mi North 6.9 mph - N/A   Overcast
7:15 AM 24.6 °F 13.8 °F 21.2 °F 87% 30.02 in 3.0 mi North 11.5 mph - N/A Snow Light Snow
7:35 AM 24.4 °F 15.6 °F 21.6 °F 89% 30.02 in 3.0 mi North 8.1 mph - N/A Snow Light Snow
7:55 AM 24.3 °F 15.4 °F 21.4 °F 89% 30.02 in 3.0 mi North 8.1 mph - N/A Snow Light Snow
8:14 AM 24.3 °F 18.4 °F 21.6 °F 89% 30.03 in 3.0 mi NNE 4.6 mph - N/A Snow Light Snow
8:35 AM 23.9 °F 15.8 °F 20.8 °F 88% 30.04 in 2.5 mi North 6.9 mph - N/A Snow Light Snow
8:55 AM 23.7 °F 14.7 °F 20.3 °F 87% 30.05 in 7.0 mi North 8.1 mph - N/A   Overcast
9:14 AM 23.5 °F 15.4 °F 20.1 °F 87% 30.05 in 7.0 mi North 6.9 mph - N/A   Overcast
9:35 AM 23.5 °F 13.7 °F 19.4 °F 84% 30.03 in 5.0 mi NNE 9.2 mph - N/A   Overcast
9:55 AM 23.7 °F 14.0 °F 18.5 °F 80% 30.03 in 4.0 mi NNE 9.2 mph - N/A Snow Light Snow
10:14 AM 23.7 °F 13.3 °F 18.3 °F 80% 30.02 in 5.0 mi North 10.4 mph - N/A Snow Light Snow
10:35 AM 23.5 °F 13.7 °F 17.8 °F 79% 30.04 in 7.0 mi North 9.2 mph - N/A   Overcast
10:55 AM 23.5 °F 15.4 °F 17.6 °F 78% 30.04 in 10.0 mi North 6.9 mph - N/A   Overcast
11:14 AM 23.4 °F 13.5 °F 16.9 °F 76% 30.03 in 10.0 mi North 9.2 mph - N/A   Overcast
11:35 AM 23.0 °F 13.1 °F 17.4 °F 79% 30.03 in 1.2 mi North 9.2 mph - N/A Snow Light Snow
11:55 AM 22.1 °F 12.0 °F 18.5 °F 86% 30.00 in 0.5 mi North 9.2 mph - N/A Snow Light Snow
12:14 PM 22.1 °F 11.3 °F 18.9 °F 87% 29.99 in 0.8 mi North 10.4 mph - N/A Snow Light Snow
12:35 PM 22.1 °F 13.7 °F 19.4 °F 89% 29.98 in 1.0 mi North 6.9 mph - N/A Snow Light Snow
12:55 PM 21.9 °F 13.4 °F 18.7 °F 87% 29.97 in 1.2 mi North 6.9 mph - N/A Snow Light Snow
1:14 PM 21.9 °F 14.5 °F 19.0 °F 89% 29.95 in 1.2 mi North 5.8 mph - N/A Snow Light Snow
1:35 PM 21.7 °F 10.8 °F 18.5 °F 87% 29.94 in 0.8 mi North 10.4 mph - N/A Snow Light Snow
1:55 PM 21.4 °F 9.7 °F 18.5 °F 89% 29.93 in 0.8 mi North 11.5 mph - N/A Snow Light Snow
2:14 PM 21.2 °F 9.5 °F 18.3 °F 89% 29.91 in 0.8 mi North 11.5 mph - N/A Snow Light Snow
2:35 PM 21.2 °F 10.1 °F 18.5 °F 89% 29.92 in 1.0 mi North 10.4 mph - N/A Snow Light Snow
2:55 PM 21.2 °F 10.1 °F 18.5 °F 89% 29.89 in 0.5 mi North 10.4 mph - N/A Snow Light Snow
3:14 PM 21.0 °F 9.3 °F 18.3 °F 89% 29.89 in 0.8 mi North 11.5 mph 18.4 mph N/A Snow Light Snow
3:35 PM 20.8 °F 9.7 °F 18.0 °F 89% 29.87 in 0.8 mi North 10.4 mph 17.3 mph N/A Snow Light Snow
3:55 PM 20.7 °F 9.5 °F 17.6 °F 88% 29.88 in 0.8 mi North 10.4 mph 16.1 mph N/A Snow Light Snow
4:14 PM 20.8 °F 9.7 °F 18.1 °F 89% 29.86 in 1.0 mi North 10.4 mph - N/A Snow Light Snow
4:35 PM 20.7 °F 10.2 °F 17.6 °F 88% 29.87 in 0.8 mi NNW 9.2 mph 16.1 mph N/A Snow Light Snow
4:55 PM 20.3 °F 11.5 °F 17.6 °F 89% 29.88 in 1.0 mi NNW 6.9 mph - 0.01 in Snow Light Snow
5:14 PM 20.3 °F 9.8 °F 17.6 °F 89% 29.85 in 1.2 mi North 9.2 mph - N/A Snow Light Snow
5:35 PM 19.8 °F 7.7 °F 16.7 °F 88% 29.83 in 1.5 mi North 11.5 mph 18.4 mph N/A Snow Light Snow
5:55 PM 19.4 °F 7.2 °F 16.3 °F 88% 29.83 in 2.0 mi North 11.5 mph 19.6 mph N/A Snow Light Snow
6:14 PM 19.2 °F 7.7 °F 15.8 °F 87% 29.84 in 2.0 mi North 10.4 mph 18.4 mph N/A Snow Light Snow
6:35 PM 19.0 °F 7.5 °F 15.8 °F 87% 29.83 in 1.8 mi North 10.4 mph - N/A Snow Light Snow
6:55 PM 18.9 °F 6.5 °F 15.6 °F 87% 29.81 in 1.8 mi North 11.5 mph 17.3 mph N/A Snow Light Snow
7:14 PM 18.3 °F 5.9 °F 14.9 °F 86% 29.81 in 1.8 mi North 11.5 mph 18.4 mph N/A Snow Light Snow
7:35 PM 18.0 °F 5.4 °F 14.4 °F 86% 29.83 in 2.0 mi North 11.5 mph 18.4 mph N/A Snow Light Snow
7:55 PM 17.6 °F 5.7 °F 14.0 °F 86% 29.82 in 2.5 mi NNW 10.4 mph 16.1 mph N/A Snow Light Snow
8:14 PM 17.4 °F 5.4 °F 13.6 °F 85% 29.80 in 3.0 mi NNW 10.4 mph 16.1 mph N/A Snow Light Snow
8:35 PM 17.2 °F 4.5 °F 13.1 °F 84% 29.78 in 2.0 mi NNW 11.5 mph 18.4 mph N/A Snow Light Snow
8:55 PM 16.7 °F 5.3 °F 12.9 °F 85% 29.77 in 3.0 mi NNW 9.2 mph 16.1 mph N/A Snow Light Snow
9:14 PM 16.7 °F 4.5 °F 12.9 °F 85% 29.76 in 3.0 mi NNW 10.4 mph - N/A Snow Light Snow
9:35 PM 16.7 °F 3.8 °F 12.6 °F 84% 29.76 in 3.0 mi NNW 11.5 mph - N/A Snow Light Snow
9:55 PM 16.7 °F 3.8 °F 12.0 °F 82% 29.74 in 4.0 mi NNW 11.5 mph 16.1 mph N/A Snow Light Snow
10:14 PM 16.5 °F 5.1 °F 11.7 °F 81% 29.74 in 3.0 mi NNW 9.2 mph 19.6 mph N/A Snow Light Snow
10:35 PM 16.2 °F 3.2 °F 10.9 °F 80% 29.73 in 3.0 mi NNW 11.5 mph 16.1 mph N/A Snow Light Snow
10:55 PM 15.8 °F 2.7 °F 10.8 °F 80% 29.73 in 3.0 mi NW 11.5 mph 17.3 mph N/A Snow Light Snow
11:14 PM 15.8 °F 4.2 °F 11.1 °F 82% 29.71 in 2.5 mi NW 9.2 mph 18.4 mph N/A Snow Light Snow
11:35 PM 15.4 °F 3.0 °F 10.4 °F 80% 29.71 in 2.5 mi NW 10.4 mph 16.1 mph N/A Snow Light Snow
11:55 PM 14.9 °F 0.9 °F 9.5 °F 79% 29.70 in 4.0 mi NNW 12.7 mph 19.6 mph N/A Snow Light Snow